createdAt,value
2022-11-19T00:01:22.749Z,94075.72
2022-11-19T00:03:52.605Z,94081.94
2022-11-19T00:06:25.264Z,94082.59
2022-11-19T00:08:52.381Z,94074.50
2022-11-19T00:11:42.014Z,94067.66
2022-11-19T00:14:10.813Z,94060.22
2022-11-19T00:16:37.524Z,94068.34
2022-11-19T00:19:05.004Z,94075.50
2022-11-19T00:21:31.911Z,94089.34
2022-11-19T00:23:58.938Z,94097.09
2022-11-19T00:26:25.905Z,94091.88
2022-11-19T00:28:52.663Z,94091.38
2022-11-19T00:31:19.558Z,94086.50
2022-11-19T00:33:47.229Z,94076.56
2022-11-19T00:36:15.454Z,94089.00
2022-11-19T00:38:43.372Z,94086.69
2022-11-19T00:41:10.713Z,94093.16
2022-11-19T00:43:47.308Z,94100.84
2022-11-19T00:46:16.086Z,94089.97
2022-11-19T00:48:43.004Z,94078.97
2022-11-19T00:51:10.641Z,94076.50
2022-11-19T00:53:37.797Z,94077.84
2022-11-19T00:56:07.297Z,94082.94
2022-11-19T00:58:34.058Z,94083.81
2022-11-19T01:01:01.075Z,94083.84
2022-11-19T01:03:27.849Z,94076.91
2022-11-19T01:05:54.637Z,94075.22
2022-11-19T01:08:21.543Z,94095.28
2022-11-19T01:10:48.385Z,94088.56
2022-11-19T01:13:33.611Z,94095.13
2022-11-19T01:16:01.101Z,94087.06
2022-11-19T01:18:28.581Z,94094.25
2022-11-19T01:20:55.620Z,94096.22
2022-11-19T01:23:22.684Z,94091.75
2022-11-19T01:25:49.418Z,94086.91
2022-11-19T01:28:16.600Z,94091.72
2022-11-19T01:30:43.839Z,94093.91
2022-11-19T01:33:10.871Z,94106.69
2022-11-19T01:35:37.714Z,94100.13
2022-11-19T01:38:05.304Z,94106.31
2022-11-19T01:40:32.722Z,94121.56
2022-11-19T01:42:59.604Z,94115.00
2022-11-19T01:45:52.789Z,94118.53
2022-11-19T01:48:27.268Z,94131.78
2022-11-19T01:51:02.271Z,94130.91
2022-11-19T01:53:34.720Z,94124.84
2022-11-19T01:56:04.974Z,94116.38
2022-11-19T01:58:36.405Z,94130.78
2022-11-19T02:01:03.251Z,94128.47
2022-11-19T02:03:32.285Z,94138.06
2022-11-19T02:06:01.660Z,94127.59
2022-11-19T02:08:45.018Z,94133.50
2022-11-19T02:11:42.733Z,94155.03
2022-11-19T02:14:18.358Z,94133.91
2022-11-19T02:17:06.040Z,94130.06
2022-11-19T02:20:10.028Z,94143.88
2022-11-19T02:22:55.417Z,94143.38
2022-11-19T02:25:31.165Z,94146.97
2022-11-19T02:28:33.372Z,94156.34
2022-11-19T02:31:08.812Z,94167.38
2022-11-19T02:33:38.442Z,94169.81
2022-11-19T02:36:15.238Z,94165.81
2022-11-19T02:39:01.217Z,94161.13
2022-11-19T02:41:36.272Z,94171.84
2022-11-19T02:44:47.403Z,94169.91
2022-11-19T02:47:19.018Z,94185.44
2022-11-19T02:49:46.675Z,94188.44
2022-11-19T02:52:17.763Z,94191.56
2022-11-19T02:54:44.832Z,94195.16
2022-11-19T02:57:12.808Z,94203.09
2022-11-19T03:00:17.114Z,94197.84
2022-11-19T03:03:08.359Z,94203.44
2022-11-19T03:05:41.581Z,94207.66
2022-11-19T03:08:08.509Z,94216.84
2022-11-19T03:11:06.703Z,94225.56
2022-11-19T03:14:17.226Z,94218.66
2022-11-19T03:17:08.163Z,94211.34
2022-11-19T03:19:48.834Z,94219.03
2022-11-19T03:22:21.727Z,94232.38
2022-11-19T03:24:59.080Z,94231.53
2022-11-19T03:27:31.358Z,94245.97
2022-11-19T03:30:01.886Z,94240.44
2022-11-19T03:32:41.071Z,94235.31
2022-11-19T03:35:15.115Z,94237.94
2022-11-19T03:37:46.046Z,94245.09
2022-11-19T03:40:15.651Z,94239.56
2022-11-19T03:42:45.993Z,94229.28
2022-11-19T03:45:18.200Z,94240.59
2022-11-19T03:47:47.883Z,94243.28
2022-11-19T03:50:35.144Z,94243.63
2022-11-19T03:53:04.497Z,94243.31
2022-11-19T03:55:38.201Z,94252.47
2022-11-19T03:58:07.700Z,94256.31
2022-11-19T04:00:34.466Z,94270.13
2022-11-19T04:03:01.382Z,94272.69
2022-11-19T04:05:29.175Z,94278.41
2022-11-19T04:07:56.118Z,94280.25
2022-11-19T04:10:24.063Z,94283.44
2022-11-19T04:12:50.776Z,94279.47
2022-11-19T04:15:17.909Z,94280.25
2022-11-19T04:17:44.679Z,94287.13
2022-11-19T04:20:11.648Z,94296.25
2022-11-19T04:22:38.412Z,94297.25
2022-11-19T04:25:05.957Z,94300.41
2022-11-19T04:27:32.697Z,94306.34
2022-11-19T04:29:59.450Z,94304.53
2022-11-19T04:32:26.229Z,94295.69
2022-11-19T04:34:53.164Z,94309.50
2022-11-19T04:37:19.821Z,94301.97
2022-11-19T04:39:46.675Z,94306.88
2022-11-19T04:42:13.403Z,94319.22
2022-11-19T04:44:40.151Z,94327.56
2022-11-19T04:47:06.964Z,94321.88
2022-11-19T04:49:33.826Z,94323.84
2022-11-19T04:52:00.637Z,94331.28
2022-11-19T04:54:27.448Z,94338.09
2022-11-19T04:56:54.155Z,94352.56
2022-11-19T04:59:21.043Z,94344.25
2022-11-19T05:01:49.406Z,94349.63
2022-11-19T05:04:16.438Z,94350.63
2022-11-19T05:06:43.331Z,94355.91
2022-11-19T05:09:10.043Z,94366.03
2022-11-19T05:11:36.929Z,94396.50
2022-11-19T05:14:03.622Z,94397.38
2022-11-19T05:16:30.582Z,94396.59
2022-11-19T05:18:57.251Z,94405.59
2022-11-19T05:21:24.026Z,94414.44
2022-11-19T05:23:50.828Z,94413.00
2022-11-19T05:26:17.844Z,94440.03
2022-11-19T05:28:44.574Z,94439.44
2022-11-19T05:31:11.928Z,94436.66
2022-11-19T05:33:38.638Z,94431.03
2022-11-19T05:36:06.040Z,94420.09
2022-11-19T05:38:32.820Z,94427.50
2022-11-19T05:40:59.572Z,94441.19
2022-11-19T05:43:26.287Z,94422.25
2022-11-19T05:45:53.201Z,94454.94
2022-11-19T05:48:20.053Z,94453.44
2022-11-19T05:50:46.804Z,94459.91
2022-11-19T05:53:14.672Z,94466.59
2022-11-19T05:55:41.389Z,94470.72
2022-11-19T05:58:08.183Z,94475.72
2022-11-19T06:00:35.009Z,94478.59
2022-11-19T06:03:01.927Z,94475.16
2022-11-19T06:05:28.699Z,94474.84
2022-11-19T06:07:55.545Z,94483.31
2022-11-19T06:10:22.248Z,94481.28
2022-11-19T06:12:49.216Z,94491.19
2022-11-19T06:15:16.203Z,94507.16
2022-11-19T06:17:43.033Z,94501.03
2022-11-19T06:20:11.267Z,94508.31
2022-11-19T06:22:39.057Z,94523.78
2022-11-19T06:25:07.756Z,94524.00
2022-11-19T06:27:35.082Z,94537.47
2022-11-19T06:30:02.260Z,94535.22
2022-11-19T06:32:29.082Z,94548.59
2022-11-19T06:34:55.790Z,94539.34
2022-11-19T06:37:22.683Z,94542.91
2022-11-19T06:39:49.604Z,94541.78
2022-11-19T06:42:34.995Z,94545.03
2022-11-19T06:45:11.327Z,94557.47
2022-11-19T06:47:39.814Z,94564.13
2022-11-19T06:50:09.936Z,94573.50
2022-11-19T06:52:36.795Z,94581.22
2022-11-19T06:55:04.134Z,94583.72
2022-11-19T06:57:30.894Z,94581.69
2022-11-19T06:59:57.611Z,94576.97
2022-11-19T07:02:24.409Z,94575.31
2022-11-19T07:04:52.152Z,94583.19
2022-11-19T07:07:19.110Z,94573.59
2022-11-19T07:09:45.818Z,94573.25
2022-11-19T07:12:12.602Z,94575.38
2022-11-19T07:14:39.353Z,94575.59
2022-11-19T07:17:07.267Z,94582.94
2022-11-19T07:19:33.981Z,94578.94
2022-11-19T07:22:00.819Z,94579.19
2022-11-19T07:24:27.533Z,94579.25
2022-11-19T07:26:56.024Z,94569.47
2022-11-19T07:29:23.015Z,94563.03
2022-11-19T07:31:50.840Z,94562.69
2022-11-19T07:34:18.204Z,94560.75
2022-11-19T07:36:45.952Z,94564.78
2022-11-19T07:39:12.901Z,94579.97
2022-11-19T07:41:58.682Z,94578.31
2022-11-19T07:44:25.686Z,94583.16
2022-11-19T07:46:52.940Z,94584.63
2022-11-19T07:49:20.235Z,94601.94
2022-11-19T07:51:47.630Z,94596.75
2022-11-19T07:54:14.714Z,94592.25
2022-11-19T07:56:41.573Z,94577.25
2022-11-19T07:59:08.934Z,94589.53
2022-11-19T08:01:36.180Z,94594.78
2022-11-19T08:04:04.460Z,94602.50
2022-11-19T08:06:33.347Z,94598.44
2022-11-19T08:09:01.254Z,94610.06
2022-11-19T08:11:28.655Z,94613.88
2022-11-19T08:13:55.528Z,94612.41
2022-11-19T08:16:41.004Z,94619.16
2022-11-19T08:19:10.222Z,94625.69
2022-11-19T08:21:40.842Z,94625.59
2022-11-19T08:24:08.973Z,94635.69
2022-11-19T08:26:36.521Z,94644.47
2022-11-19T08:29:03.654Z,94640.75
2022-11-19T08:31:30.546Z,94635.31
2022-11-19T08:33:57.398Z,94617.63
2022-11-19T08:36:24.176Z,94627.69
2022-11-19T08:38:51.080Z,94631.53
2022-11-19T08:41:36.535Z,94630.00
2022-11-19T08:44:03.767Z,94624.72
2022-11-19T08:46:30.507Z,94630.84
2022-11-19T08:48:57.313Z,94627.97
2022-11-19T08:51:24.040Z,94633.47
2022-11-19T08:53:53.839Z,94631.34
2022-11-19T08:56:21.481Z,94626.25
2022-11-19T08:58:49.014Z,94626.84
2022-11-19T09:01:17.941Z,94626.41
2022-11-19T09:03:45.087Z,94632.34
2022-11-19T09:06:12.513Z,94638.13
2022-11-19T09:08:40.333Z,94632.72
2022-11-19T09:11:09.605Z,94635.13
2022-11-19T09:13:36.463Z,94635.91
2022-11-19T09:16:03.751Z,94634.19
2022-11-19T09:18:32.386Z,94647.22
2022-11-19T09:20:59.630Z,94646.22
2022-11-19T09:23:27.531Z,94644.13
2022-11-19T09:25:58.817Z,94640.44
2022-11-19T09:28:26.289Z,94625.09
2022-11-19T09:31:01.127Z,94613.63
2022-11-19T09:33:30.831Z,94616.34
2022-11-19T09:35:57.834Z,94618.25
2022-11-19T09:38:24.837Z,94618.09
2022-11-19T09:40:54.224Z,94605.28
2022-11-19T09:43:41.980Z,94604.66
2022-11-19T09:46:30.250Z,94600.66
2022-11-19T09:49:03.452Z,94585.97
2022-11-19T09:51:33.866Z,94583.94
2022-11-19T09:54:27.068Z,94567.47
2022-11-19T09:57:00.384Z,94560.66
2022-11-19T09:59:40.317Z,94554.66
2022-11-19T10:02:18.640Z,94560.41
2022-11-19T10:04:48.014Z,94552.84
2022-11-19T10:07:24.045Z,94550.72
2022-11-19T10:10:18.408Z,94555.09
2022-11-19T10:13:36.291Z,94548.13
2022-11-19T10:16:22.632Z,94529.44
2022-11-19T10:19:00.315Z,94533.91
2022-11-19T10:21:52.180Z,94534.69
2022-11-19T10:24:42.139Z,94533.53
2022-11-19T10:27:32.418Z,94533.16
2022-11-19T10:30:06.463Z,94545.00
2022-11-19T10:32:38.365Z,94538.25
2022-11-19T10:35:17.061Z,94534.78
2022-11-19T10:37:56.500Z,94534.97
2022-11-19T10:40:26.089Z,94528.97
2022-11-19T10:42:57.673Z,94534.66
2022-11-19T10:45:27.752Z,94520.94
2022-11-19T10:48:09.184Z,94515.69
2022-11-19T10:50:37.218Z,94506.09
2022-11-19T10:53:32.341Z,94518.88
2022-11-19T10:56:04.135Z,94519.84
2022-11-19T10:58:39.562Z,94509.91
2022-11-19T11:01:28.200Z,94499.44
2022-11-19T11:04:19.170Z,94518.78
2022-11-19T11:06:55.898Z,94482.38
2022-11-19T11:09:29.943Z,94497.13
2022-11-19T11:12:37.032Z,94504.56
2022-11-19T11:15:12.945Z,94486.56
2022-11-19T11:17:42.621Z,94480.69
2022-11-19T11:20:18.103Z,94490.44
2022-11-19T11:22:49.562Z,94489.47
2022-11-19T11:25:26.978Z,94485.66
2022-11-19T11:28:18.769Z,94486.66
2022-11-19T11:31:02.164Z,94478.19
2022-11-19T11:33:35.537Z,94473.44
2022-11-19T11:36:19.639Z,94476.78
2022-11-19T11:38:49.289Z,94463.53
2022-11-19T11:42:05.573Z,94481.50
2022-11-19T11:44:34.660Z,94464.31
2022-11-19T11:47:14.020Z,94444.44
2022-11-19T11:49:44.338Z,94451.69
2022-11-19T11:52:22.897Z,94477.34
2022-11-19T11:55:04.970Z,94473.06
2022-11-19T11:57:34.495Z,94461.66
2022-11-19T12:00:06.978Z,94469.03
2022-11-19T12:02:35.395Z,94469.53
2022-11-19T12:05:06.964Z,94477.84
2022-11-19T12:08:04.124Z,94475.19
2022-11-19T12:10:36.871Z,94477.50
2022-11-19T12:13:37.980Z,94460.84
2022-11-19T12:16:28.040Z,94470.13
2022-11-19T12:19:13.514Z,94467.22
2022-11-19T12:21:45.928Z,94462.22
2022-11-19T12:24:59.092Z,94474.94
2022-11-19T12:27:50.627Z,94462.00
2022-11-19T12:30:29.216Z,94456.94
2022-11-19T12:32:58.707Z,94475.13
2022-11-19T12:35:45.702Z,94473.56
2022-11-19T12:38:29.461Z,94473.69
2022-11-19T12:40:56.390Z,94476.47
2022-11-19T12:43:53.759Z,94465.34
2022-11-19T12:46:28.712Z,94458.03
2022-11-19T12:49:29.615Z,94482.13
2022-11-19T12:52:18.216Z,94478.06
2022-11-19T12:54:50.657Z,94463.69
2022-11-19T12:57:50.889Z,94461.44
2022-11-19T13:00:22.542Z,94469.88
2022-11-19T13:02:57.256Z,94472.06
2022-11-19T13:05:38.498Z,94469.22
2022-11-19T13:08:24.763Z,94467.81
2022-11-19T13:11:04.709Z,94463.75
2022-11-19T13:13:35.538Z,94472.78
2022-11-19T13:16:16.755Z,94477.56
2022-11-19T13:18:48.153Z,94461.13
2022-11-19T13:21:38.911Z,94479.00
2022-11-19T13:24:21.538Z,94463.22
2022-11-19T13:26:48.842Z,94479.56
2022-11-19T13:29:24.594Z,94478.09
2022-11-19T13:32:20.233Z,94479.88
2022-11-19T13:35:05.758Z,94488.56
2022-11-19T13:38:02.519Z,94508.13
2022-11-19T13:40:55.423Z,94498.31
2022-11-19T13:43:41.306Z,94476.88
2022-11-19T13:46:10.969Z,94485.66
2022-11-19T13:48:43.372Z,94476.59
2022-11-19T13:51:44.785Z,94474.97
2022-11-19T13:54:34.041Z,94476.09
2022-11-19T13:57:02.327Z,94471.91
2022-11-19T13:59:39.605Z,94482.13
2022-11-19T14:02:31.495Z,94478.22
2022-11-19T14:05:26.167Z,94475.44
2022-11-19T14:08:01.785Z,94484.25
2022-11-19T14:10:40.629Z,94492.00
2022-11-19T14:13:41.820Z,94489.47
2022-11-19T14:16:54.395Z,94485.22
2022-11-19T14:19:39.815Z,94484.53
2022-11-19T14:22:50.042Z,94487.47
2022-11-19T14:26:00.250Z,94486.75
2022-11-19T14:28:42.393Z,94484.53
2022-11-19T14:31:09.596Z,94476.25
2022-11-19T14:33:57.347Z,94482.41
2022-11-19T14:36:47.573Z,94479.75
2022-11-19T14:39:25.868Z,94468.34
2022-11-19T14:42:11.203Z,94478.53
2022-11-19T14:44:38.149Z,94475.66
2022-11-19T14:47:24.416Z,94474.13
2022-11-19T14:49:54.367Z,94468.06
2022-11-19T14:52:33.856Z,94454.97
2022-11-19T14:55:06.778Z,94468.97
2022-11-19T14:57:39.466Z,94466.31
2022-11-19T15:00:06.789Z,94481.53
2022-11-19T15:02:47.288Z,94491.31
2022-11-19T15:05:20.948Z,94477.75
2022-11-19T15:07:54.463Z,94478.25
2022-11-19T15:10:33.798Z,94480.75
2022-11-19T15:13:24.009Z,94486.03
2022-11-19T15:15:55.350Z,94483.34
2022-11-19T15:18:40.323Z,94486.34
2022-11-19T15:21:37.962Z,94493.09
2022-11-19T15:24:13.291Z,94495.59
2022-11-19T15:26:58.703Z,94487.06
2022-11-19T15:29:43.142Z,94481.53
2022-11-19T15:32:22.323Z,94498.50
2022-11-19T15:35:13.412Z,94509.66
2022-11-19T15:37:47.763Z,94502.81
2022-11-19T15:40:21.424Z,94484.31
2022-11-19T15:42:56.974Z,94489.44
2022-11-19T15:45:24.937Z,94497.94
2022-11-19T15:48:09.610Z,94494.47
2022-11-19T15:50:37.314Z,94484.53
2022-11-19T15:53:18.058Z,94481.47
2022-11-19T15:55:59.889Z,94462.88
2022-11-19T15:58:49.645Z,94480.59
2022-11-19T16:01:19.010Z,94485.63
2022-11-19T16:03:47.153Z,94483.91
2022-11-19T16:06:18.918Z,94483.56
2022-11-19T16:08:47.650Z,94494.31
2022-11-19T16:11:39.487Z,94482.88
2022-11-19T16:14:41.573Z,94482.78
2022-11-19T16:17:32.940Z,94499.81
2022-11-19T16:20:04.770Z,94491.34
2022-11-19T16:22:33.903Z,94491.94
2022-11-19T16:25:07.407Z,94487.78
2022-11-19T16:27:34.342Z,94500.28
2022-11-19T16:30:01.101Z,94509.97
2022-11-19T16:32:28.014Z,94504.97
2022-11-19T16:35:10.198Z,94508.34
2022-11-19T16:37:37.718Z,94523.53
2022-11-19T16:40:05.075Z,94514.22
2022-11-19T16:42:32.789Z,94516.53
2022-11-19T16:45:17.806Z,94516.34
2022-11-19T16:48:05.950Z,94528.56
2022-11-19T16:50:42.259Z,94535.09
2022-11-19T16:53:10.742Z,94533.47
2022-11-19T16:55:40.535Z,94518.66
2022-11-19T16:58:17.789Z,94513.69
2022-11-19T17:00:52.432Z,94524.50
2022-11-19T17:03:32.067Z,94524.19
2022-11-19T17:05:59.430Z,94523.31
2022-11-19T17:08:29.596Z,94532.03
2022-11-19T17:11:38.971Z,94529.28
2022-11-19T17:14:13.041Z,94536.41
2022-11-19T17:16:44.844Z,94524.16
2022-11-19T17:19:31.435Z,94527.16
2022-11-19T17:22:03.994Z,94522.63
2022-11-19T17:24:43.093Z,94525.75
2022-11-19T17:27:32.136Z,94510.03
2022-11-19T17:30:04.256Z,94488.28
2022-11-19T17:32:38.979Z,94495.28
2022-11-19T17:35:29.281Z,94515.22
2022-11-19T17:37:58.919Z,94525.88
2022-11-19T17:40:25.843Z,94505.09
2022-11-19T17:43:11.724Z,94533.75
2022-11-19T17:45:38.571Z,94546.94
2022-11-19T17:48:19.647Z,94541.25
2022-11-19T17:50:47.003Z,94564.59
2022-11-19T17:53:13.782Z,94561.19
2022-11-19T17:55:43.498Z,94543.53
2022-11-19T17:58:10.305Z,94558.56
2022-11-19T18:00:38.555Z,94566.25
2022-11-19T18:03:05.356Z,94542.59
2022-11-19T18:05:34.861Z,94531.97
2022-11-19T18:08:01.639Z,94564.06
2022-11-19T18:10:29.541Z,94571.00
2022-11-19T18:12:56.504Z,94567.59
2022-11-19T18:15:23.211Z,94552.81
2022-11-19T18:17:50.166Z,94557.97
2022-11-19T18:20:17.017Z,94580.09
2022-11-19T18:22:43.944Z,94564.44
2022-11-19T18:25:17.461Z,94543.03
2022-11-19T18:27:45.049Z,94547.22
2022-11-19T18:30:13.001Z,94539.16
2022-11-19T18:32:40.215Z,94540.06
2022-11-19T18:35:18.487Z,94531.34
2022-11-19T18:37:45.788Z,94551.06
2022-11-19T18:40:13.866Z,94536.31
2022-11-19T18:43:00.607Z,94543.63
2022-11-19T18:45:27.808Z,94536.69
2022-11-19T18:47:54.761Z,94561.72
2022-11-19T18:50:25.461Z,94549.81
2022-11-19T18:52:56.429Z,94558.41
2022-11-19T18:55:23.227Z,94543.94
2022-11-19T18:57:51.166Z,94545.97
2022-11-19T19:00:18.299Z,94544.88
2022-11-19T19:02:45.136Z,94543.00
2022-11-19T19:05:12.010Z,94557.38
2022-11-19T19:07:38.979Z,94539.06
2022-11-19T19:10:06.278Z,94540.44
2022-11-19T19:12:33.083Z,94547.31
2022-11-19T19:15:00.018Z,94521.28
2022-11-19T19:17:26.755Z,94537.84
2022-11-19T19:19:53.586Z,94540.97
2022-11-19T19:22:20.776Z,94552.97
2022-11-19T19:24:48.006Z,94524.94
2022-11-19T19:27:15.364Z,94519.31
2022-11-19T19:29:42.390Z,94540.81
2022-11-19T19:32:09.292Z,94527.91
2022-11-19T19:34:36.499Z,94537.41
2022-11-19T19:37:04.386Z,94512.44
2022-11-19T19:39:31.347Z,94526.63
2022-11-19T19:41:58.354Z,94535.06
2022-11-19T19:44:25.167Z,94501.78
2022-11-19T19:46:52.279Z,94498.06
2022-11-19T19:49:19.681Z,94525.38
2022-11-19T19:51:47.391Z,94510.53
2022-11-19T19:54:14.174Z,94495.56
2022-11-19T19:56:41.580Z,94497.75
2022-11-19T19:59:11.680Z,94497.22
2022-11-19T20:01:38.559Z,94495.88
2022-11-19T20:04:09.017Z,94490.28
2022-11-19T20:06:41.036Z,94469.06
2022-11-19T20:09:08.956Z,94486.97
2022-11-19T20:11:37.234Z,94484.66
2022-11-19T20:14:04.709Z,94473.38
2022-11-19T20:16:32.874Z,94466.88
2022-11-19T20:19:00.905Z,94481.38
2022-11-19T20:21:31.645Z,94482.63
2022-11-19T20:23:58.762Z,94451.25
2022-11-19T20:26:28.089Z,94469.66
2022-11-19T20:28:56.402Z,94485.28
2022-11-19T20:31:23.909Z,94468.19
2022-11-19T20:33:59.093Z,94468.63
2022-11-19T20:36:28.177Z,94444.31
2022-11-19T20:38:57.457Z,94443.59
2022-11-19T20:41:43.792Z,94460.47
2022-11-19T20:44:21.357Z,94465.16
2022-11-19T20:46:55.522Z,94447.50
2022-11-19T20:49:25.749Z,94435.59
2022-11-19T20:51:53.030Z,94435.72
2022-11-19T20:54:21.541Z,94441.53
2022-11-19T20:56:49.547Z,94424.50
2022-11-19T20:59:16.951Z,94441.41
2022-11-19T21:01:43.779Z,94457.34
2022-11-19T21:04:11.904Z,94450.66
2022-11-19T21:06:39.053Z,94462.47
2022-11-19T21:09:06.039Z,94460.63
2022-11-19T21:11:33.323Z,94454.53
2022-11-19T21:14:00.419Z,94446.78
2022-11-19T21:16:28.940Z,94436.09
2022-11-19T21:18:56.122Z,94441.56
2022-11-19T21:21:24.233Z,94444.56
2022-11-19T21:23:52.886Z,94428.47
2022-11-19T21:26:21.857Z,94429.41
2022-11-19T21:28:54.091Z,94434.88
2022-11-19T21:31:23.681Z,94441.44
2022-11-19T21:33:50.344Z,94417.91
2022-11-19T21:36:17.292Z,94429.91
2022-11-19T21:38:44.082Z,94410.09
2022-11-19T21:41:11.900Z,94425.38
2022-11-19T21:43:38.629Z,94420.31
2022-11-19T21:46:08.438Z,94407.78
2022-11-19T21:48:37.405Z,94425.84
2022-11-19T21:51:08.238Z,94423.97
2022-11-19T21:53:36.143Z,94422.78
2022-11-19T21:56:03.355Z,94422.84
2022-11-19T21:58:31.250Z,94410.19
2022-11-19T22:00:59.512Z,94413.09
2022-11-19T22:03:32.322Z,94417.25
2022-11-19T22:06:00.473Z,94427.56
2022-11-19T22:08:31.208Z,94423.97
2022-11-19T22:10:58.700Z,94419.34
2022-11-19T22:13:25.961Z,94411.44
2022-11-19T22:16:00.872Z,94421.91
2022-11-19T22:18:27.626Z,94397.97
2022-11-19T22:21:03.833Z,94401.00
2022-11-19T22:23:30.865Z,94406.56
2022-11-19T22:26:04.281Z,94403.41
2022-11-19T22:28:31.157Z,94399.94
2022-11-19T22:30:57.809Z,94388.25
2022-11-19T22:33:24.626Z,94368.72
2022-11-19T22:35:51.326Z,94375.00
2022-11-19T22:38:18.194Z,94379.03
2022-11-19T22:40:44.900Z,94380.78
2022-11-19T22:43:11.727Z,94390.41
2022-11-19T22:45:38.365Z,94390.22
2022-11-19T22:48:06.411Z,94387.78
2022-11-19T22:50:33.265Z,94404.94
2022-11-19T22:52:59.926Z,94391.28
2022-11-19T22:55:26.691Z,94396.13
2022-11-19T22:57:53.695Z,94394.97
2022-11-19T23:00:38.654Z,94391.00
2022-11-19T23:03:05.726Z,94396.31
2022-11-19T23:05:36.984Z,94374.41
2022-11-19T23:08:06.080Z,94402.41
2022-11-19T23:10:33.665Z,94400.22
2022-11-19T23:13:19.851Z,94381.84
2022-11-19T23:16:05.665Z,94380.78
2022-11-19T23:18:38.954Z,94389.72
2022-11-19T23:21:09.731Z,94407.00
2022-11-19T23:23:36.878Z,94413.63
2022-11-19T23:26:06.101Z,94407.53
2022-11-19T23:28:34.043Z,94406.75
2022-11-19T23:31:06.217Z,94415.56
2022-11-19T23:33:33.201Z,94425.22
2022-11-19T23:36:04.901Z,94402.09
2022-11-19T23:38:32.302Z,94384.47
2022-11-19T23:41:00.617Z,94402.25
2022-11-19T23:43:29.049Z,94410.66
2022-11-19T23:46:02.829Z,94424.88
2022-11-19T23:48:30.474Z,94405.34
2022-11-19T23:51:04.003Z,94357.16
2022-11-19T23:53:31.090Z,94394.28
2022-11-19T23:55:58.521Z,94392.88
2022-11-19T23:58:25.845Z,94393.06
